Time,TemperatureF,DewpointF,PressureIn,WindDirection,WindDirectionDegrees,WindSpeedMPH,WindSpeedGustMPH,Humidity,HourlyPrecipIn,Conditions,Clouds,dailyrainin,SoftwareType,DateUTC
2013-01-20 00:05:00,40.4,40.0,30.26,ESE,115,0.0,0.0,97,0.00,,,0.00,weatherlink.com 1.10,2013-01-20 06:05:00,
2013-01-20 00:20:00,40.0,39.0,30.25,ESE,116,0.0,0.0,97,0.00,,,0.00,weatherlink.com 1.10,2013-01-20 06:20:00,
2013-01-20 00:35:00,39.9,39.0,30.25,ESE,115,0.0,0.0,97,0.00,,,0.00,weatherlink.com 1.10,2013-01-20 06:35:00,
2013-01-20 00:50:00,39.5,39.0,30.25,ESE,116,0.0,0.0,97,0.00,,,0.00,weatherlink.com 1.10,2013-01-20 06:50:00,
2013-01-20 01:05:00,39.7,39.0,30.25,ESE,115,0.0,0.0,97,0.00,,,0.00,weatherlink.com 1.10,2013-01-20 07:05:00,
2013-01-20 01:20:00,39.2,39.0,30.25,ESE,115,0.0,0.0,97,0.00,,,0.00,weatherlink.com 1.10,2013-01-20 07:20:00,
2013-01-20 01:35:00,39.1,38.0,30.26,ESE,115,0.0,0.0,97,0.00,,,0.00,weatherlink.com 1.10,2013-01-20 07:35:00,
2013-01-20 01:50:00,38.8,38.0,30.26,ESE,115,0.0,0.0,97,0.00,,,0.00,weatherlink.com 1.10,2013-01-20 07:50:00,
2013-01-20 02:05:00,38.5,38.0,30.25,ESE,115,0.0,0.0,97,0.00,,,0.00,weatherlink.com 1.10,2013-01-20 08:05:00,
2013-01-20 02:20:00,38.3,38.0,30.26,ESE,115,0.0,0.0,97,0.00,,,0.00,weatherlink.com 1.10,2013-01-20 08:20:00,
2013-01-20 02:35:00,38.0,37.0,30.26,ESE,116,0.0,0.0,97,0.00,,,0.00,weatherlink.com 1.10,2013-01-20 08:35:00,
2013-01-20 02:50:00,37.9,37.0,30.25,ESE,115,0.0,0.0,98,0.00,,,0.00,weatherlink.com 1.10,2013-01-20 08:50:00,
2013-01-20 03:05:00,37.6,37.0,30.25,ESE,115,0.0,0.0,98,0.00,,,0.00,weatherlink.com 1.10,2013-01-20 09:05:00,
2013-01-20 03:20:00,37.3,37.0,30.25,ESE,115,0.0,0.0,98,0.00,,,0.00,weatherlink.com 1.10,2013-01-20 09:20:00,
2013-01-20 03:35:00,36.8,36.0,30.25,ESE,115,0.0,1.0,97,0.00,,,0.00,weatherlink.com 1.10,2013-01-20 09:35:00,
2013-01-20 03:50:00,36.8,36.0,30.24,ESE,115,0.0,0.0,97,0.00,,,0.00,weatherlink.com 1.10,2013-01-20 09:50:00,
2013-01-20 04:05:00,36.5,36.0,30.25,ESE,115,0.0,0.0,97,0.00,,,0.00,weatherlink.com 1.10,2013-01-20 10:05:00,
2013-01-20 04:20:00,36.2,36.0,30.24,ESE,116,0.0,0.0,97,0.00,,,0.00,weatherlink.com 1.10,2013-01-20 10:20:00,
2013-01-20 04:35:00,35.8,35.0,30.25,ESE,115,0.0,0.0,97,0.00,,,0.00,weatherlink.com 1.10,2013-01-20 10:35:00,
2013-01-20 04:50:00,35.6,35.0,30.24,ESE,115,0.0,0.0,97,0.00,,,0.00,weatherlink.com 1.10,2013-01-20 10:50:00,
2013-01-20 05:05:00,35.5,35.0,30.25,ESE,115,0.0,0.0,98,0.00,,,0.00,weatherlink.com 1.10,2013-01-20 11:05:00,
2013-01-20 05:20:00,35.3,35.0,30.25,ESE,116,0.0,0.0,98,0.00,,,0.00,weatherlink.com 1.10,2013-01-20 11:20:00,
2013-01-20 05:35:00,34.9,34.0,30.25,ESE,115,0.0,0.0,98,0.00,,,0.00,weatherlink.com 1.10,2013-01-20 11:35:00,
2013-01-20 05:50:00,34.8,34.0,30.25,ESE,115,0.0,0.0,98,0.01,,,0.01,weatherlink.com 1.10,2013-01-20 11:50:00,
2013-01-20 06:05:00,34.5,34.0,30.24,ESE,115,0.0,0.0,98,0.01,,,0.01,weatherlink.com 1.10,2013-01-20 12:05:00,
2013-01-20 06:20:00,34.1,34.0,30.24,ESE,115,0.0,0.0,98,0.01,,,0.01,weatherlink.com 1.10,2013-01-20 12:20:00,
2013-01-20 06:35:00,34.0,34.0,30.24,ESE,116,0.0,0.0,98,0.01,,,0.01,weatherlink.com 1.10,2013-01-20 12:35:00,
2013-01-20 06:50:00,33.7,33.0,30.24,ESE,116,0.0,0.0,98,0.00,,,0.01,weatherlink.com 1.10,2013-01-20 12:50:00,
2013-01-20 07:05:00,33.5,33.0,30.25,ESE,116,0.0,0.0,98,0.00,,,0.01,weatherlink.com 1.10,2013-01-20 13:05:00,
2013-01-20 07:20:00,33.8,33.0,30.25,ESE,115,0.0,0.0,98,0.00,,,0.01,weatherlink.com 1.10,2013-01-20 13:20:00,
2013-01-20 07:35:00,34.9,34.0,30.25,ESE,116,0.0,0.0,98,0.00,,,0.01,weatherlink.com 1.10,2013-01-20 13:35:00,
2013-01-20 07:50:00,35.9,35.0,30.25,ESE,115,0.0,0.0,98,0.00,,,0.01,weatherlink.com 1.10,2013-01-20 13:50:00,
2013-01-20 08:05:00,37.9,37.0,30.26,WNW,289,0.0,0.0,98,0.00,,,0.01,weatherlink.com 1.10,2013-01-20 14:05:00,
2013-01-20 08:20:00,40.0,40.0,30.26,WNW,297,0.0,0.0,98,0.00,,,0.01,weatherlink.com 1.10,2013-01-20 14:20:00,
2013-01-20 08:35:00,42.8,42.0,30.26,ENE,75,1.0,1.0,98,0.00,,,0.01,weatherlink.com 1.10,2013-01-20 14:35:00,
2013-01-20 08:51:00,45.1,45.0,30.26,NE,49,0.0,2.0,98,0.00,,,0.01,weatherlink.com 1.10,2013-01-20 14:51:00,
2013-01-20 09:06:00,47.7,46.0,30.27,ENE,68,2.0,2.0,95,0.00,,,0.01,weatherlink.com 1.10,2013-01-20 15:06:00,
2013-01-20 09:21:00,50.0,47.0,30.27,ENE,69,2.0,3.0,88,0.00,,,0.01,weatherlink.com 1.10,2013-01-20 15:21:00,
2013-01-20 09:36:00,52.3,47.0,30.27,NE,51,0.0,1.0,81,0.00,,,0.01,weatherlink.com 1.10,2013-01-20 15:36:00,
2013-01-20 09:51:00,54.5,46.0,30.27,NNW,328,2.0,7.0,74,0.00,,,0.01,weatherlink.com 1.10,2013-01-20 15:51:00,
2013-01-20 10:06:00,56.2,46.0,30.27,East,99,3.0,6.0,68,0.00,,,0.01,weatherlink.com 1.10,2013-01-20 16:06:00,
2013-01-20 10:21:00,57.8,46.0,30.27,NE,51,2.0,4.0,65,0.00,,,0.01,weatherlink.com 1.10,2013-01-20 16:21:00,
2013-01-20 10:36:00,58.9,45.0,30.27,WNW,283,2.0,4.0,61,0.00,,,0.01,weatherlink.com 1.10,2013-01-20 16:36:00,
2013-01-20 10:51:00,59.9,44.0,30.27,NW,311,3.0,6.0,56,0.00,,,0.01,weatherlink.com 1.10,2013-01-20 16:51:00,
2013-01-20 11:06:00,59.7,41.0,30.26,East,100,3.0,7.0,50,0.00,,,0.01,weatherlink.com 1.10,2013-01-20 17:06:00,
2013-01-20 11:21:00,60.5,42.0,30.25,West,262,2.0,6.0,50,0.00,,,0.01,weatherlink.com 1.10,2013-01-20 17:21:00,
2013-01-20 11:36:00,61.2,42.0,30.25,NNW,342,3.0,7.0,50,0.00,,,0.01,weatherlink.com 1.10,2013-01-20 17:36:00,
2013-01-20 11:51:00,62.0,41.0,30.23,NNE,27,2.0,7.0,47,0.00,,,0.01,weatherlink.com 1.10,2013-01-20 17:51:00,
2013-01-20 12:06:00,62.2,40.0,30.22,ENE,61,6.0,6.0,45,0.00,,,0.01,weatherlink.com 1.10,2013-01-20 18:06:00,
2013-01-20 12:21:00,62.4,39.0,30.21,NE,48,0.0,5.0,43,0.00,,,0.01,weatherlink.com 1.10,2013-01-20 18:21:00,
2013-01-20 12:36:00,62.5,38.0,30.19,ESE,117,0.0,5.0,40,0.00,,,0.01,weatherlink.com 1.10,2013-01-20 18:36:00,
2013-01-20 12:51:00,63.9,40.0,30.18,NE,49,3.0,3.0,42,0.00,,,0.01,weatherlink.com 1.10,2013-01-20 18:51:00,
2013-01-20 13:07:00,63.8,38.0,30.17,North,1,0.0,5.0,39,0.00,,,0.01,weatherlink.com 1.10,2013-01-20 19:07:00,
2013-01-20 13:22:00,63.7,37.0,30.16,East,89,0.0,3.0,37,0.00,,,0.01,weatherlink.com 1.10,2013-01-20 19:22:00,
2013-01-20 13:37:00,64.9,38.0,30.16,SSE,152,0.0,-999.0,37,-99.99,,,0.01,weatherlink.com 1.10,2013-01-20 19:37:00,
2013-01-20 13:52:00,64.7,38.0,30.16,SE,136,0.0,6.0,38,0.00,,,0.01,weatherlink.com 1.10,2013-01-20 19:52:00,
2013-01-20 14:07:00,65.9,37.0,30.15,North,359,0.0,0.0,35,0.00,,,0.01,weatherlink.com 1.10,2013-01-20 20:07:00,
2013-01-20 14:22:00,66.0,38.0,30.14,SSE,150,0.0,4.0,36,0.00,,,0.01,weatherlink.com 1.10,2013-01-20 20:22:00,
2013-01-20 14:37:00,66.3,38.0,30.14,SSW,198,0.0,0.0,36,0.00,,,0.01,weatherlink.com 1.10,2013-01-20 20:37:00,
2013-01-20 14:52:00,67.9,38.0,30.14,SW,228,0.0,1.0,34,0.00,,,0.01,weatherlink.com 1.10,2013-01-20 20:52:00,
2013-01-20 15:07:00,67.0,38.0,30.13,NE,49,0.0,1.0,35,0.00,,,0.01,weatherlink.com 1.10,2013-01-20 21:07:00,
2013-01-20 15:22:00,67.0,38.0,30.13,West,277,1.0,3.0,35,0.00,,,0.01,weatherlink.com 1.10,2013-01-20 21:22:00,
2013-01-20 15:37:00,67.0,38.0,30.13,ESE,111,0.0,2.0,34,0.00,,,0.01,weatherlink.com 1.10,2013-01-20 21:37:00,
2013-01-20 15:52:00,68.3,38.0,30.13,WNW,286,0.0,0.0,33,0.00,,,0.01,weatherlink.com 1.10,2013-01-20 21:52:00,
2013-01-20 16:07:00,69.6,41.0,30.13,SE,142,0.0,0.0,35,0.00,,,0.01,weatherlink.com 1.10,2013-01-20 22:07:00,
2013-01-20 16:23:00,68.4,40.0,30.13,SE,142,0.0,0.0,35,0.00,,,0.01,weatherlink.com 1.10,2013-01-20 22:23:00,
2013-01-20 16:37:00,68.8,40.0,30.13,SE,142,0.0,0.0,35,0.00,,,0.01,weatherlink.com 1.10,2013-01-20 22:37:00,
2013-01-20 16:52:00,65.8,39.0,30.13,SE,142,0.0,0.0,38,0.00,,,0.01,weatherlink.com 1.10,2013-01-20 22:52:00,
2013-01-20 17:07:00,61.2,40.0,30.13,SE,143,0.0,0.0,45,0.00,,,0.01,weatherlink.com 1.10,2013-01-20 23:07:00,
2013-01-20 17:22:00,58.3,40.0,30.13,SE,142,0.0,0.0,50,0.00,,,0.01,weatherlink.com 1.10,2013-01-20 23:22:00,
2013-01-20 17:37:00,55.8,42.0,30.14,SE,143,0.0,0.0,60,0.00,,,0.01,weatherlink.com 1.10,2013-01-20 23:37:00,
2013-01-20 17:52:00,53.9,43.0,30.14,SE,143,0.0,0.0,66,0.00,,,0.01,weatherlink.com 1.10,2013-01-20 23:52:00,
2013-01-20 18:07:00,52.0,44.0,30.13,SE,142,0.0,0.0,75,0.00,,,0.01,weatherlink.com 1.10,2013-01-21 00:07:00,
2013-01-20 18:22:00,50.4,44.0,30.14,SE,143,0.0,0.0,79,0.00,,,0.01,weatherlink.com 1.10,2013-01-21 00:22:00,
2013-01-20 18:37:00,49.1,44.0,30.15,SE,142,0.0,0.0,83,0.00,,,0.01,weatherlink.com 1.10,2013-01-21 00:37:00,
2013-01-20 18:52:00,47.9,43.0,30.15,SE,143,0.0,0.0,82,0.00,,,0.01,weatherlink.com 1.10,2013-01-21 00:52:00,
2013-01-20 19:07:00,46.8,43.0,30.15,SE,142,0.0,0.0,86,0.00,,,0.01,weatherlink.com 1.10,2013-01-21 01:07:00,
2013-01-20 19:22:00,45.7,42.0,30.15,SE,143,0.0,0.0,86,0.00,,,0.01,weatherlink.com 1.10,2013-01-21 01:22:00,
2013-01-20 19:37:00,44.7,42.0,30.15,SE,142,0.0,0.0,90,0.00,,,0.01,weatherlink.com 1.10,2013-01-21 01:37:00,
2013-01-20 19:52:00,44.0,41.0,30.16,West,265,0.0,3.0,89,0.00,,,0.01,weatherlink.com 1.10,2013-01-21 01:52:00,
2013-01-20 20:07:00,43.5,41.0,30.16,West,266,0.0,0.0,89,0.00,,,0.01,weatherlink.com 1.10,2013-01-21 02:07:00,
2013-01-20 20:22:00,43.2,41.0,30.16,West,265,0.0,0.0,92,0.00,,,0.01,weatherlink.com 1.10,2013-01-21 02:22:00,
2013-01-20 20:37:00,42.9,41.0,30.17,West,266,0.0,0.0,92,0.00,,,0.01,weatherlink.com 1.10,2013-01-21 02:37:00,
2013-01-20 20:52:00,42.4,40.0,30.17,West,266,0.0,0.0,92,0.00,,,0.01,weatherlink.com 1.10,2013-01-21 02:52:00,
2013-01-20 21:07:00,41.9,40.0,30.17,West,266,0.0,0.0,93,0.00,,,0.01,weatherlink.com 1.10,2013-01-21 03:07:00,
2013-01-20 21:22:00,41.3,39.0,30.17,West,266,0.0,1.0,92,0.00,,,0.01,weatherlink.com 1.10,2013-01-21 03:22:00,
2013-01-20 21:37:00,40.7,39.0,30.17,West,266,0.0,0.0,92,0.00,,,0.01,weatherlink.com 1.10,2013-01-21 03:37:00,
2013-01-20 21:52:00,40.7,39.0,30.18,West,266,0.0,0.0,94,0.00,,,0.01,weatherlink.com 1.10,2013-01-21 03:52:00,
2013-01-20 22:07:00,40.3,39.0,30.18,West,266,0.0,0.0,94,0.00,,,0.01,weatherlink.com 1.10,2013-01-21 04:07:00,
2013-01-20 22:22:00,39.9,39.0,30.18,West,266,0.0,0.0,95,0.00,,,0.01,weatherlink.com 1.10,2013-01-21 04:22:00,
2013-01-20 22:37:00,40.0,39.0,30.18,West,266,0.0,0.0,95,0.00,,,0.01,weatherlink.com 1.10,2013-01-21 04:37:00,
2013-01-20 22:52:00,40.0,39.0,30.17,West,266,0.0,0.0,95,0.00,,,0.01,weatherlink.com 1.10,2013-01-21 04:52:00,
2013-01-20 23:07:00,39.7,38.0,30.16,West,266,0.0,0.0,95,0.00,,,0.01,weatherlink.com 1.10,2013-01-21 05:07:00,
2013-01-20 23:22:00,39.7,38.0,30.16,West,266,0.0,1.0,95,0.00,,,0.01,weatherlink.com 1.10,2013-01-21 05:22:00,
2013-01-20 23:37:00,39.3,38.0,30.16,West,266,0.0,1.0,95,0.00,,,0.01,weatherlink.com 1.10,2013-01-21 05:37:00,
2013-01-20 23:52:00,38.9,38.0,30.15,West,266,0.0,0.0,95,0.00,,,0.01,weatherlink.com 1.10,2013-01-21 05:52:00,